createdAt,value
2019-02-21T00:00:23.774Z,23.97
2019-02-21T00:04:23.544Z,23.40
2019-02-21T00:08:29.523Z,20.93
2019-02-21T00:12:34.417Z,21.40
2019-02-21T00:16:39.310Z,18.23
2019-02-21T00:20:44.204Z,19.00
2019-02-21T00:24:49.104Z,21.97
2019-02-21T00:28:54.000Z,16.13
2019-02-21T00:32:58.898Z,19.47
2019-02-21T00:37:04.856Z,16.57
2019-02-21T00:41:09.754Z,18.07
2019-02-21T00:45:14.653Z,17.60
2019-02-21T00:49:19.555Z,15.57
2019-02-21T00:53:24.450Z,18.40
2019-02-21T00:57:29.331Z,13.53
2019-02-21T01:01:34.222Z,16.00
2019-02-21T01:05:39.128Z,15.97
2019-02-21T01:09:44.025Z,16.17
2019-02-21T01:13:48.990Z,10.80
2019-02-21T01:17:53.870Z,11.40
2019-02-21T01:21:58.769Z,12.37
2019-02-21T01:26:03.669Z,12.70
2019-02-21T01:30:08.936Z,16.37
2019-02-21T01:34:13.829Z,12.50
2019-02-21T01:38:18.707Z,12.00
2019-02-21T01:42:23.618Z,14.13
2019-02-21T01:46:28.520Z,10.43
2019-02-21T01:50:33.418Z,11.43
2019-02-21T01:54:38.309Z,12.23
2019-02-21T01:58:43.196Z,14.77
2019-02-21T02:02:48.087Z,15.77
2019-02-21T02:06:53.062Z,13.43
2019-02-21T02:10:57.951Z,13.60
2019-02-21T02:15:02.848Z,14.83
2019-02-21T02:19:08.077Z,12.87
2019-02-21T02:23:12.986Z,12.50
2019-02-21T02:27:17.888Z,11.37
2019-02-21T02:31:23.790Z,12.83
2019-02-21T02:35:28.860Z,12.43
2019-02-21T02:39:33.744Z,13.67
2019-02-21T02:43:38.635Z,12.73
2019-02-21T02:47:43.538Z,14.50
2019-02-21T02:51:48.422Z,12.10
2019-02-21T02:55:53.325Z,15.20
2019-02-21T02:59:58.205Z,14.90
2019-02-21T03:04:03.133Z,13.33
2019-02-21T03:08:08.014Z,12.17
2019-02-21T03:12:12.915Z,14.50
2019-02-21T03:16:18.784Z,18.23
2019-02-21T03:20:23.670Z,12.83
2019-02-21T03:24:28.568Z,19.00
2019-02-21T03:28:33.459Z,12.80
2019-02-21T03:32:38.355Z,16.77
2019-02-21T03:36:43.254Z,19.13
2019-02-21T03:40:48.146Z,19.63
2019-02-21T03:44:53.034Z,20.07
2019-02-21T03:48:57.932Z,21.37
2019-02-21T03:53:02.831Z,18.70
2019-02-21T03:57:07.799Z,22.17
2019-02-21T04:01:12.690Z,19.87
2019-02-21T04:05:17.599Z,25.50
2019-02-21T04:09:22.568Z,23.07
2019-02-21T04:13:27.467Z,22.83
2019-02-21T04:17:32.375Z,24.00
2019-02-21T04:21:37.255Z,20.80
2019-02-21T04:25:42.152Z,17.63
2019-02-21T04:29:47.043Z,21.27
2019-02-21T04:33:51.942Z,22.20
2019-02-21T04:37:56.836Z,18.80
2019-02-21T04:42:01.724Z,23.30
2019-02-21T04:46:06.628Z,18.57
2019-02-21T04:50:11.526Z,18.00
2019-02-21T04:54:16.422Z,21.53
2019-02-21T04:58:21.318Z,19.33
2019-02-21T05:02:29.489Z,17.13
2019-02-21T05:06:32.800Z,21.30
2019-02-21T05:10:37.756Z,17.37
2019-02-21T05:14:42.593Z,15.93
2019-02-21T05:18:47.500Z,20.07
2019-02-21T05:22:52.395Z,18.87
2019-02-21T05:26:58.921Z,17.30
2019-02-21T05:31:05.540Z,19.20
2019-02-21T05:35:18.038Z,17.50
2019-02-21T05:39:24.569Z,20.50
2019-02-21T05:43:33.759Z,20.87
2019-02-21T05:47:40.276Z,19.13
2019-02-21T05:51:46.814Z,15.73
2019-02-21T05:55:53.355Z,18.10
2019-02-21T06:00:02.604Z,20.37
2019-02-21T06:04:12.651Z,23.40
2019-02-21T06:08:37.266Z,22.17
2019-02-21T06:12:46.747Z,24.57
2019-02-21T06:16:53.288Z,19.53
2019-02-21T06:20:59.873Z,21.87
2019-02-21T06:25:22.877Z,23.60
2019-02-21T06:29:29.428Z,21.73
2019-02-21T06:33:34.384Z,21.73
2019-02-21T06:37:39.297Z,21.50
2019-02-21T06:41:44.200Z,22.00
2019-02-21T06:45:49.109Z,26.97
2019-02-21T06:49:54.005Z,25.33
2019-02-21T06:53:58.900Z,24.00
2019-02-21T06:58:04.771Z,24.07
2019-02-21T07:02:09.684Z,24.33
2019-02-21T07:06:14.587Z,34.87
2019-02-21T07:10:19.488Z,31.63
2019-02-21T07:14:24.405Z,30.20
2019-02-21T07:18:29.295Z,31.70
2019-02-21T07:22:34.198Z,25.67
2019-02-21T07:26:39.098Z,23.43
2019-02-21T07:30:44.182Z,23.00
2019-02-21T07:34:49.067Z,23.33
2019-02-21T07:39:08.297Z,24.00
2019-02-21T07:43:00.574Z,27.13
2019-02-21T07:47:05.472Z,34.67
2019-02-21T07:51:10.377Z,27.23
2019-02-21T07:55:15.270Z,27.40
2019-02-21T07:59:20.170Z,45.43
2019-02-21T08:03:30.370Z,55.97
2019-02-21T08:07:31.694Z,50.40
2019-02-21T08:11:36.595Z,55.67
2019-02-21T08:15:41.489Z,54.07
2019-02-21T08:19:46.391Z,44.53
2019-02-21T08:23:51.321Z,36.80
2019-02-21T08:27:56.489Z,37.77
2019-02-21T08:32:01.405Z,37.47
2019-02-21T08:36:06.292Z,41.30
2019-02-21T08:40:11.220Z,33.00
2019-02-21T08:44:17.173Z,32.57
2019-02-21T08:48:22.082Z,26.77
2019-02-21T08:52:26.998Z,23.63
2019-02-21T08:56:31.884Z,23.07
2019-02-21T09:00:36.788Z,25.27
2019-02-21T09:04:41.703Z,22.87
2019-02-21T09:08:46.621Z,27.60
2019-02-21T09:12:51.523Z,29.00
2019-02-21T09:16:56.431Z,24.93
2019-02-21T09:21:01.321Z,29.90
2019-02-21T09:25:13.352Z,22.57
2019-02-21T09:29:18.270Z,26.77
2019-02-21T09:33:23.193Z,24.47
2019-02-21T09:37:28.103Z,27.67
2019-02-21T09:41:33.001Z,21.27
2019-02-21T09:45:38.004Z,21.50
2019-02-21T09:49:42.911Z,25.03
2019-02-21T09:53:47.833Z,25.57
2019-02-21T09:57:52.758Z,23.43
2019-02-21T10:01:57.871Z,22.73
2019-02-21T10:06:02.851Z,30.03
2019-02-21T10:10:12.909Z,29.23
2019-02-21T10:14:17.815Z,25.13
2019-02-21T10:18:22.722Z,28.40
2019-02-21T10:22:27.629Z,26.53
2019-02-21T10:26:32.549Z,28.00
2019-02-21T10:30:37.462Z,22.87
2019-02-21T10:34:43.247Z,23.10
2019-02-21T10:38:48.562Z,23.60
2019-02-21T10:42:53.494Z,19.80
2019-02-21T10:46:58.379Z,24.87
2019-02-21T10:51:03.294Z,22.97
2019-02-21T10:55:08.268Z,23.17
2019-02-21T10:59:13.195Z,24.90
2019-02-21T11:03:18.092Z,22.73
2019-02-21T11:07:23.012Z,24.40
2019-02-21T11:11:27.931Z,23.57
2019-02-21T11:15:32.841Z,22.67
2019-02-21T11:19:37.752Z,24.97
2019-02-21T11:23:42.663Z,21.13
2019-02-21T11:27:47.591Z,23.17
2019-02-21T11:31:52.507Z,28.40
2019-02-21T11:35:57.424Z,29.37
2019-02-21T11:40:02.328Z,26.17
2019-02-21T11:44:07.304Z,25.57
2019-02-21T11:48:12.226Z,24.17
2019-02-21T11:52:17.129Z,23.10
2019-02-21T11:56:22.040Z,30.00
2019-02-21T12:00:30.790Z,25.53
2019-02-21T12:04:35.699Z,25.23
2019-02-21T12:08:40.627Z,25.23
2019-02-21T12:12:45.544Z,25.43
2019-02-21T12:16:50.461Z,29.60
2019-02-21T12:20:55.397Z,28.80
2019-02-21T12:25:00.382Z,25.27
2019-02-21T12:29:05.293Z,28.43
2019-02-21T12:33:10.202Z,27.20
2019-02-21T12:37:15.119Z,27.60
2019-02-21T12:41:20.033Z,33.40
2019-02-21T12:45:30.051Z,30.70
2019-02-21T12:49:35.351Z,32.73
2019-02-21T12:53:40.257Z,28.27
2019-02-21T12:57:45.246Z,33.93
2019-02-21T13:01:50.154Z,35.60
2019-02-21T13:05:55.070Z,31.27
2019-02-21T13:09:59.988Z,28.73
2019-02-21T13:14:05.960Z,30.67
2019-02-21T13:18:15.959Z,28.80
2019-02-21T13:22:18.458Z,31.20
2019-02-21T13:26:23.370Z,34.83
2019-02-21T13:30:28.285Z,34.50
2019-02-21T13:34:33.203Z,31.80
2019-02-21T13:38:38.119Z,28.73
2019-02-21T13:42:43.029Z,31.63
2019-02-21T13:46:47.929Z,27.17
2019-02-21T13:50:52.857Z,26.03
2019-02-21T13:54:57.756Z,31.53
2019-02-21T13:59:02.669Z,35.37
2019-02-21T14:03:07.585Z,37.20
2019-02-21T14:07:12.489Z,27.07
2019-02-21T14:11:17.405Z,29.47
2019-02-21T14:15:27.838Z,25.87
2019-02-21T14:19:32.751Z,24.60
2019-02-21T14:23:37.659Z,24.07
2019-02-21T14:27:42.563Z,25.40
2019-02-21T14:31:47.475Z,22.83
2019-02-21T14:35:52.393Z,26.40
2019-02-21T14:39:57.301Z,25.27
2019-02-21T14:44:02.214Z,22.03
2019-02-21T14:48:07.106Z,23.17
2019-02-21T14:52:12.025Z,21.17
2019-02-21T14:56:16.953Z,27.43
2019-02-21T15:00:23.945Z,25.47
2019-02-21T15:04:28.853Z,22.87
2019-02-21T15:08:33.761Z,24.43
2019-02-21T15:12:39.640Z,26.17
2019-02-21T15:16:44.545Z,23.47
2019-02-21T15:20:49.455Z,21.57
2019-02-21T15:24:54.368Z,29.27
2019-02-21T15:29:00.026Z,23.47
2019-02-21T15:33:05.092Z,25.80
2019-02-21T15:37:10.012Z,27.50
2019-02-21T15:41:14.920Z,26.83
2019-02-21T15:45:24.213Z,23.60
2019-02-21T15:49:30.374Z,22.43
2019-02-21T15:53:35.288Z,28.93
2019-02-21T15:57:40.206Z,26.67
2019-02-21T16:01:47.790Z,23.00
2019-02-21T16:05:51.714Z,21.03
2019-02-21T16:09:56.615Z,22.97
2019-02-21T16:14:03.556Z,25.57
2019-02-21T16:18:08.138Z,29.87
2019-02-21T16:22:13.054Z,33.13
2019-02-21T16:26:17.961Z,28.73
2019-02-21T16:30:22.869Z,29.63
2019-02-21T16:34:27.777Z,26.27
2019-02-21T16:38:32.690Z,29.83
2019-02-21T16:42:37.589Z,30.00
2019-02-21T16:46:42.501Z,30.33
2019-02-21T16:50:48.533Z,26.33
2019-02-21T16:54:53.592Z,29.20
2019-02-21T16:58:58.508Z,30.73
2019-02-21T17:03:03.426Z,23.93
2019-02-21T17:07:15.133Z,34.00
2019-02-21T17:11:14.938Z,28.07
2019-02-21T17:15:19.925Z,26.40
2019-02-21T17:19:24.836Z,23.83
2019-02-21T17:23:30.813Z,24.17
2019-02-21T17:27:35.725Z,43.53
2019-02-21T17:31:40.639Z,36.87
2019-02-21T17:35:45.560Z,36.00
2019-02-21T17:39:50.466Z,28.43
2019-02-21T17:43:54.353Z,35.03
2019-02-21T17:47:58.881Z,29.03
2019-02-21T17:52:03.927Z,33.63
2019-02-21T17:56:08.843Z,39.07
2019-02-21T18:00:17.340Z,35.10
2019-02-21T18:04:22.394Z,35.10
2019-02-21T18:08:27.311Z,33.13
2019-02-21T18:12:32.221Z,32.13
2019-02-21T18:16:37.125Z,32.47
2019-02-21T18:20:42.040Z,32.27
2019-02-21T18:24:46.958Z,35.43
2019-02-21T18:28:51.932Z,39.83
2019-02-21T18:32:58.429Z,49.13
2019-02-21T18:37:04.481Z,44.77
2019-02-21T18:41:09.465Z,47.07
2019-02-21T18:45:14.369Z,41.17
2019-02-21T18:49:19.309Z,38.57
2019-02-21T18:53:24.230Z,44.77
2019-02-21T18:57:29.116Z,41.17
2019-02-21T19:01:34.042Z,34.27
2019-02-21T19:05:38.955Z,35.47
2019-02-21T19:09:43.861Z,35.53
2019-02-21T19:13:48.824Z,36.53
2019-02-21T19:17:53.754Z,37.30
2019-02-21T19:21:58.667Z,35.00
2019-02-21T19:26:03.577Z,28.77
2019-02-21T19:30:14.526Z,32.43
2019-02-21T19:34:19.438Z,30.70
2019-02-21T19:38:24.338Z,39.23
2019-02-21T19:42:29.246Z,33.93
2019-02-21T19:46:35.231Z,35.03
2019-02-21T19:50:40.150Z,34.80
2019-02-21T19:54:45.047Z,33.93
2019-02-21T19:58:49.962Z,38.93
2019-02-21T20:02:55.155Z,44.47
2019-02-21T20:07:00.069Z,41.67
2019-02-21T20:11:04.998Z,42.27
2019-02-21T20:15:11.544Z,42.93
2019-02-21T20:19:17.408Z,36.03
2019-02-21T20:23:22.323Z,36.77
2019-02-21T20:27:27.314Z,36.93
2019-02-21T20:31:32.227Z,37.57
2019-02-21T20:35:37.169Z,38.57
2019-02-21T20:39:42.052Z,47.27
2019-02-21T20:43:46.958Z,42.90
2019-02-21T20:47:51.870Z,46.63
2019-02-21T20:51:56.788Z,41.10
2019-02-21T20:56:01.705Z,37.77
2019-02-21T21:00:12.046Z,36.37
2019-02-21T21:04:17.025Z,35.73
2019-02-21T21:08:21.942Z,38.63
2019-02-21T21:12:26.852Z,39.47
2019-02-21T21:16:31.798Z,40.40
2019-02-21T21:20:36.700Z,35.47
2019-02-21T21:24:42.582Z,33.67
2019-02-21T21:28:47.559Z,36.00
2019-02-21T21:32:52.410Z,40.77
2019-02-21T21:36:57.318Z,33.97
2019-02-21T21:41:02.229Z,49.73
2019-02-21T21:45:10.450Z,40.53
2019-02-21T21:49:15.358Z,43.77
2019-02-21T21:53:20.290Z,44.40
2019-02-21T21:57:25.188Z,51.87
2019-02-21T22:01:31.063Z,55.07
2019-02-21T22:05:35.983Z,41.40
2019-02-21T22:09:40.891Z,47.87
2019-02-21T22:13:45.800Z,41.13
2019-02-21T22:17:50.783Z,46.17
2019-02-21T22:21:55.687Z,43.40
2019-02-21T22:26:00.601Z,46.87
2019-02-21T22:30:08.798Z,50.53
2019-02-21T22:34:13.704Z,47.03
2019-02-21T22:38:18.630Z,45.30
2019-02-21T22:42:23.530Z,49.67
2019-02-21T22:46:28.442Z,50.87
2019-02-21T22:50:33.357Z,54.60
2019-02-21T22:54:38.261Z,51.30
2019-02-21T22:58:45.346Z,52.77
2019-02-21T23:02:49.843Z,49.60
2019-02-21T23:07:12.735Z,51.27
2019-02-21T23:11:17.636Z,52.03
2019-02-21T23:15:22.626Z,51.77
2019-02-21T23:19:27.530Z,56.23
2019-02-21T23:23:32.903Z,59.30
2019-02-21T23:27:37.791Z,57.30
2019-02-21T23:31:42.698Z,61.03
2019-02-21T23:35:47.605Z,51.40
2019-02-21T23:39:52.505Z,54.00
2019-02-21T23:43:57.493Z,61.23
2019-02-21T23:48:02.388Z,67.63
2019-02-21T23:52:08.362Z,63.60
2019-02-21T23:56:13.269Z,61.73
